sensor_id;sensor_type;location;lat;lon;timestamp;temperature;humidity
26583;DHT22;14230;45.382;10.998;2023-03-31T00:01:11;11.50;99.90
26583;DHT22;14230;45.382;10.998;2023-03-31T00:03:38;11.50;99.90
26583;DHT22;14230;45.382;10.998;2023-03-31T00:06:12;11.50;99.90
26583;DHT22;14230;45.382;10.998;2023-03-31T00:08:45;11.50;99.90
26583;DHT22;14230;45.382;10.998;2023-03-31T00:11:13;11.50;99.90
26583;DHT22;14230;45.382;10.998;2023-03-31T00:13:40;11.60;99.90
26583;DHT22;14230;45.382;10.998;2023-03-31T00:16:09;11.60;99.90
26583;DHT22;14230;45.382;10.998;2023-03-31T00:18:37;11.60;99.90
26583;DHT22;14230;45.382;10.998;2023-03-31T00:21:13;11.60;99.90
26583;DHT22;14230;45.382;10.998;2023-03-31T00:23:41;11.50;99.90
26583;DHT22;14230;45.382;10.998;2023-03-31T00:26:08;11.60;99.90
26583;DHT22;14230;45.382;10.998;2023-03-31T00:28:36;11.50;99.90
26583;DHT22;14230;45.382;10.998;2023-03-31T00:31:03;11.60;99.90
26583;DHT22;14230;45.382;10.998;2023-03-31T00:33:30;11.60;99.90
26583;DHT22;14230;45.382;10.998;2023-03-31T00:35:58;11.60;99.90
26583;DHT22;14230;45.382;10.998;2023-03-31T00:38:29;11.60;99.90
26583;DHT22;14230;45.382;10.998;2023-03-31T00:40:58;11.50;99.90
26583;DHT22;14230;45.382;10.998;2023-03-31T00:48:49;11.50;99.90
26583;DHT22;14230;45.382;10.998;2023-03-31T00:51:18;11.50;99.90
26583;DHT22;14230;45.382;10.998;2023-03-31T00:53:52;11.50;99.90
26583;DHT22;14230;45.382;10.998;2023-03-31T00:56:28;11.50;99.90
26583;DHT22;14230;45.382;10.998;2023-03-31T00:59:02;11.50;99.90
26583;DHT22;14230;45.382;10.998;2023-03-31T01:01:30;11.50;99.90
26583;DHT22;14230;45.382;10.998;2023-03-31T01:03:58;11.40;99.90
26583;DHT22;14230;45.382;10.998;2023-03-31T01:06:25;11.40;99.90
26583;DHT22;14230;45.382;10.998;2023-03-31T01:08:57;11.40;99.90
26583;DHT22;14230;45.382;10.998;2023-03-31T01:11:26;11.40;99.90
26583;DHT22;14230;45.382;10.998;2023-03-31T01:13:55;11.40;99.90
26583;DHT22;14230;45.382;10.998;2023-03-31T01:16:23;11.40;99.90
26583;DHT22;14230;45.382;10.998;2023-03-31T01:18:52;11.40;99.90
26583;DHT22;14230;45.382;10.998;2023-03-31T01:21:39;11.50;99.90
26583;DHT22;14230;45.382;10.998;2023-03-31T01:38:35;11.20;99.90
26583;DHT22;14230;45.382;10.998;2023-03-31T01:41:15;11.30;99.90
26583;DHT22;14230;45.382;10.998;2023-03-31T01:44:06;11.30;99.90
26583;DHT22;14230;45.382;10.998;2023-03-31T01:46:44;11.30;99.90
26583;DHT22;14230;45.382;10.998;2023-03-31T01:57:47;11.20;99.90
26583;DHT22;14230;45.382;10.998;2023-03-31T02:00:19;11.30;99.90
26583;DHT22;14230;45.382;10.998;2023-03-31T02:02:56;11.30;99.90
26583;DHT22;14230;45.382;10.998;2023-03-31T02:05:31;11.30;99.90
26583;DHT22;14230;45.382;10.998;2023-03-31T02:08:08;11.20;99.90
26583;DHT22;14230;45.382;10.998;2023-03-31T02:10:38;11.20;99.90
26583;DHT22;14230;45.382;10.998;2023-03-31T02:13:08;11.20;99.90
26583;DHT22;14230;45.382;10.998;2023-03-31T02:15:42;11.10;99.90
26583;DHT22;14230;45.382;10.998;2023-03-31T02:18:15;11.00;99.90
26583;DHT22;14230;45.382;10.998;2023-03-31T02:20:46;11.00;99.90
26583;DHT22;14230;45.382;10.998;2023-03-31T02:23:18;11.00;99.90
26583;DHT22;14230;45.382;10.998;2023-03-31T02:25:58;10.90;99.90
26583;DHT22;14230;45.382;10.998;2023-03-31T02:28:28;10.90;99.90
26583;DHT22;14230;45.382;10.998;2023-03-31T02:34:02;10.80;99.90
26583;DHT22;14230;45.382;10.998;2023-03-31T02:36:33;10.80;99.90
26583;DHT22;14230;45.382;10.998;2023-03-31T02:39:07;10.80;99.90
26583;DHT22;14230;45.382;10.998;2023-03-31T02:41:36;10.80;99.90
26583;DHT22;14230;45.382;10.998;2023-03-31T02:44:03;10.80;99.90
26583;DHT22;14230;45.382;10.998;2023-03-31T02:46:31;10.80;99.90
26583;DHT22;14230;45.382;10.998;2023-03-31T02:49:01;10.80;99.90
26583;DHT22;14230;45.382;10.998;2023-03-31T03:00:57;11.00;99.90
26583;DHT22;14230;45.382;10.998;2023-03-31T03:06:46;11.10;99.90
26583;DHT22;14230;45.382;10.998;2023-03-31T03:09:33;11.10;99.90
26583;DHT22;14230;45.382;10.998;2023-03-31T03:14:50;11.20;99.90
26583;DHT22;14230;45.382;10.998;2023-03-31T03:20:08;11.30;99.90
26583;DHT22;14230;45.382;10.998;2023-03-31T03:22:37;11.20;99.90
26583;DHT22;14230;45.382;10.998;2023-03-31T03:25:10;11.30;99.90
26583;DHT22;14230;45.382;10.998;2023-03-31T03:27:39;11.20;99.90
26583;DHT22;14230;45.382;10.998;2023-03-31T03:30:09;11.20;99.90
26583;DHT22;14230;45.382;10.998;2023-03-31T03:32:37;11.10;99.90
26583;DHT22;14230;45.382;10.998;2023-03-31T03:35:05;11.10;99.90
26583;DHT22;14230;45.382;10.998;2023-03-31T03:37:33;11.10;99.90
26583;DHT22;14230;45.382;10.998;2023-03-31T03:40:02;11.10;99.90
26583;DHT22;14230;45.382;10.998;2023-03-31T03:42:32;11.10;99.90
26583;DHT22;14230;45.382;10.998;2023-03-31T03:45:00;11.10;99.90
26583;DHT22;14230;45.382;10.998;2023-03-31T03:47:28;11.10;99.90
26583;DHT22;14230;45.382;10.998;2023-03-31T03:49:55;11.20;99.90
26583;DHT22;14230;45.382;10.998;2023-03-31T03:52:23;11.20;99.90
26583;DHT22;14230;45.382;10.998;2023-03-31T03:54:50;11.20;99.90
26583;DHT22;14230;45.382;10.998;2023-03-31T03:57:17;11.20;99.90
26583;DHT22;14230;45.382;10.998;2023-03-31T03:59:45;11.20;99.90
26583;DHT22;14230;45.382;10.998;2023-03-31T04:02:13;11.20;99.90
26583;DHT22;14230;45.382;10.998;2023-03-31T04:04:40;11.20;99.90
26583;DHT22;14230;45.382;10.998;2023-03-31T04:07:08;11.10;99.90
26583;DHT22;14230;45.382;10.998;2023-03-31T04:09:35;11.10;99.90
26583;DHT22;14230;45.382;10.998;2023-03-31T04:12:03;11.10;99.90
26583;DHT22;14230;45.382;10.998;2023-03-31T04:14:30;11.10;99.90
26583;DHT22;14230;45.382;10.998;2023-03-31T04:16:58;11.20;99.90
26583;DHT22;14230;45.382;10.998;2023-03-31T04:19:25;11.10;99.90
26583;DHT22;14230;45.382;10.998;2023-03-31T04:21:53;11.10;99.90
26583;DHT22;14230;45.382;10.998;2023-03-31T04:24:25;11.10;99.90
26583;DHT22;14230;45.382;10.998;2023-03-31T04:26:59;11.20;99.90
26583;DHT22;14230;45.382;10.998;2023-03-31T04:29:27;11.20;99.90
26583;DHT22;14230;45.382;10.998;2023-03-31T04:31:55;11.30;99.90
26583;DHT22;14230;45.382;10.998;2023-03-31T04:34:26;11.30;99.90
26583;DHT22;14230;45.382;10.998;2023-03-31T04:37:02;11.30;99.90
26583;DHT22;14230;45.382;10.998;2023-03-31T04:39:30;11.40;99.90
26583;DHT22;14230;45.382;10.998;2023-03-31T04:42:00;11.40;99.90
26583;DHT22;14230;45.382;10.998;2023-03-31T04:44:28;11.40;99.90
26583;DHT22;14230;45.382;10.998;2023-03-31T04:46:55;11.40;99.90
26583;DHT22;14230;45.382;10.998;2023-03-31T04:49:25;11.40;99.90
26583;DHT22;14230;45.382;10.998;2023-03-31T04:51:52;11.40;99.90
26583;DHT22;14230;45.382;10.998;2023-03-31T04:54:19;11.40;99.90
26583;DHT22;14230;45.382;10.998;2023-03-31T04:56:47;11.40;99.90
26583;DHT22;14230;45.382;10.998;2023-03-31T04:59:14;11.40;99.90
26583;DHT22;14230;45.382;10.998;2023-03-31T05:01:42;11.30;99.90
26583;DHT22;14230;45.382;10.998;2023-03-31T05:04:12;11.40;99.90
26583;DHT22;14230;45.382;10.998;2023-03-31T05:06:39;11.30;99.90
26583;DHT22;14230;45.382;10.998;2023-03-31T05:09:07;11.30;99.90
26583;DHT22;14230;45.382;10.998;2023-03-31T05:11:36;11.20;99.90
26583;DHT22;14230;45.382;10.998;2023-03-31T05:14:04;11.30;99.90
26583;DHT22;14230;45.382;10.998;2023-03-31T05:16:32;11.30;99.90
26583;DHT22;14230;45.382;10.998;2023-03-31T05:18:59;11.30;99.90
26583;DHT22;14230;45.382;10.998;2023-03-31T05:21:27;11.40;99.90
26583;DHT22;14230;45.382;10.998;2023-03-31T05:23:56;11.40;99.90
26583;DHT22;14230;45.382;10.998;2023-03-31T05:26:25;11.40;99.90
26583;DHT22;14230;45.382;10.998;2023-03-31T05:28:53;11.40;99.90
26583;DHT22;14230;45.382;10.998;2023-03-31T05:31:20;11.40;99.90
26583;DHT22;14230;45.382;10.998;2023-03-31T05:33:48;11.40;99.90
26583;DHT22;14230;45.382;10.998;2023-03-31T05:36:16;11.40;99.90
26583;DHT22;14230;45.382;10.998;2023-03-31T05:38:44;11.40;99.90
26583;DHT22;14230;45.382;10.998;2023-03-31T05:41:12;11.40;99.90
26583;DHT22;14230;45.382;10.998;2023-03-31T05:43:39;11.30;99.90
26583;DHT22;14230;45.382;10.998;2023-03-31T05:46:07;11.30;99.90
26583;DHT22;14230;45.382;10.998;2023-03-31T05:48:35;11.40;99.90
26583;DHT22;14230;45.382;10.998;2023-03-31T05:51:04;11.40;99.90
26583;DHT22;14230;45.382;10.998;2023-03-31T05:53:32;11.40;99.90
26583;DHT22;14230;45.382;10.998;2023-03-31T05:56:02;11.40;99.90
26583;DHT22;14230;45.382;10.998;2023-03-31T05:58:30;11.40;99.90
26583;DHT22;14230;45.382;10.998;2023-03-31T06:01:06;11.40;99.90
26583;DHT22;14230;45.382;10.998;2023-03-31T06:03:39;11.40;99.90
26583;DHT22;14230;45.382;10.998;2023-03-31T06:06:10;11.40;99.90
26583;DHT22;14230;45.382;10.998;2023-03-31T06:08:42;11.50;99.90
26583;DHT22;14230;45.382;10.998;2023-03-31T06:11:12;11.50;99.90
26583;DHT22;14230;45.382;10.998;2023-03-31T06:13:40;11.50;99.90
26583;DHT22;14230;45.382;10.998;2023-03-31T06:16:10;11.60;99.90
26583;DHT22;14230;45.382;10.998;2023-03-31T06:18:39;11.70;99.90
26583;DHT22;14230;45.382;10.998;2023-03-31T06:21:07;11.70;99.90
26583;DHT22;14230;45.382;10.998;2023-03-31T06:23:35;11.70;99.90
26583;DHT22;14230;45.382;10.998;2023-03-31T06:26:05;11.70;99.90
26583;DHT22;14230;45.382;10.998;2023-03-31T06:28:34;11.70;99.90
26583;DHT22;14230;45.382;10.998;2023-03-31T06:31:11;11.80;99.90
26583;DHT22;14230;45.382;10.998;2023-03-31T06:33:40;11.80;99.90
26583;DHT22;14230;45.382;10.998;2023-03-31T06:36:08;11.70;99.90
26583;DHT22;14230;45.382;10.998;2023-03-31T06:38:37;11.80;99.90
26583;DHT22;14230;45.382;10.998;2023-03-31T06:41:05;11.80;99.90
26583;DHT22;14230;45.382;10.998;2023-03-31T06:43:34;11.80;99.90
26583;DHT22;14230;45.382;10.998;2023-03-31T06:46:02;11.70;99.90
26583;DHT22;14230;45.382;10.998;2023-03-31T06:48:29;11.80;99.90
26583;DHT22;14230;45.382;10.998;2023-03-31T06:51:02;11.90;99.90
26583;DHT22;14230;45.382;10.998;2023-03-31T06:53:30;11.90;99.90
26583;DHT22;14230;45.382;10.998;2023-03-31T06:55:57;11.90;99.90
26583;DHT22;14230;45.382;10.998;2023-03-31T06:58:25;11.90;99.90
26583;DHT22;14230;45.382;10.998;2023-03-31T07:00:56;11.90;99.90
26583;DHT22;14230;45.382;10.998;2023-03-31T07:03:24;11.80;99.90
26583;DHT22;14230;45.382;10.998;2023-03-31T07:05:53;11.90;99.90
26583;DHT22;14230;45.382;10.998;2023-03-31T07:08:21;12.00;99.90
26583;DHT22;14230;45.382;10.998;2023-03-31T07:10:56;12.00;99.90
26583;DHT22;14230;45.382;10.998;2023-03-31T07:13:25;12.00;99.90
26583;DHT22;14230;45.382;10.998;2023-03-31T07:15:53;12.10;99.90
26583;DHT22;14230;45.382;10.998;2023-03-31T07:18:20;12.10;99.90
26583;DHT22;14230;45.382;10.998;2023-03-31T07:20:52;12.20;99.90
26583;DHT22;14230;45.382;10.998;2023-03-31T07:23:20;12.30;99.90
26583;DHT22;14230;45.382;10.998;2023-03-31T07:25:48;12.40;99.90
26583;DHT22;14230;45.382;10.998;2023-03-31T07:28:16;12.40;99.90
26583;DHT22;14230;45.382;10.998;2023-03-31T07:30:44;12.30;99.90
26583;DHT22;14230;45.382;10.998;2023-03-31T07:33:12;12.20;99.90
26583;DHT22;14230;45.382;10.998;2023-03-31T07:35:40;12.20;99.90
26583;DHT22;14230;45.382;10.998;2023-03-31T07:38:09;12.20;99.90
26583;DHT22;14230;45.382;10.998;2023-03-31T07:40:38;12.30;99.90
26583;DHT22;14230;45.382;10.998;2023-03-31T07:43:06;12.40;99.90
26583;DHT22;14230;45.382;10.998;2023-03-31T07:45:34;12.40;99.90
26583;DHT22;14230;45.382;10.998;2023-03-31T07:48:02;12.40;99.90
26583;DHT22;14230;45.382;10.998;2023-03-31T07:50:29;12.40;99.90
26583;DHT22;14230;45.382;10.998;2023-03-31T07:52:59;12.40;99.90
26583;DHT22;14230;45.382;10.998;2023-03-31T07:55:26;12.40;99.90
26583;DHT22;14230;45.382;10.998;2023-03-31T07:57:54;12.30;99.90
26583;DHT22;14230;45.382;10.998;2023-03-31T08:00:22;12.40;99.90
26583;DHT22;14230;45.382;10.998;2023-03-31T08:02:50;12.50;99.90
26583;DHT22;14230;45.382;10.998;2023-03-31T08:05:18;12.60;99.90
26583;DHT22;14230;45.382;10.998;2023-03-31T08:07:48;12.50;99.90
26583;DHT22;14230;45.382;10.998;2023-03-31T08:10:20;12.60;99.90
26583;DHT22;14230;45.382;10.998;2023-03-31T08:12:48;12.60;99.90
26583;DHT22;14230;45.382;10.998;2023-03-31T08:15:15;12.60;99.90
26583;DHT22;14230;45.382;10.998;2023-03-31T08:17:43;12.60;99.90
26583;DHT22;14230;45.382;10.998;2023-03-31T08:20:11;12.70;99.90
26583;DHT22;14230;45.382;10.998;2023-03-31T08:22:39;12.80;99.90
26583;DHT22;14230;45.382;10.998;2023-03-31T08:25:07;12.80;99.90
26583;DHT22;14230;45.382;10.998;2023-03-31T08:27:36;12.90;99.90
26583;DHT22;14230;45.382;10.998;2023-03-31T08:30:06;13.00;99.90
26583;DHT22;14230;45.382;10.998;2023-03-31T08:32:34;13.00;99.90
26583;DHT22;14230;45.382;10.998;2023-03-31T08:35:03;13.00;99.90
26583;DHT22;14230;45.382;10.998;2023-03-31T08:37:30;13.10;99.90
26583;DHT22;14230;45.382;10.998;2023-03-31T08:39:58;13.30;99.90
26583;DHT22;14230;45.382;10.998;2023-03-31T08:45:04;13.40;99.90
26583;DHT22;14230;45.382;10.998;2023-03-31T08:47:34;13.40;99.90
26583;DHT22;14230;45.382;10.998;2023-03-31T08:50:11;13.40;99.90
26583;DHT22;14230;45.382;10.998;2023-03-31T08:53:04;13.50;99.90
26583;DHT22;14230;45.382;10.998;2023-03-31T08:55:49;13.40;99.90
26583;DHT22;14230;45.382;10.998;2023-03-31T08:58:35;13.50;99.90
26583;DHT22;14230;45.382;10.998;2023-03-31T09:10:06;13.20;99.90
26583;DHT22;14230;45.382;10.998;2023-03-31T09:18:33;13.20;99.90
26583;DHT22;14230;45.382;10.998;2023-03-31T09:27:13;13.30;99.90
26583;DHT22;14230;45.382;10.998;2023-03-31T09:29:52;13.40;99.90
26583;DHT22;14230;45.382;10.998;2023-03-31T09:32:26;13.40;99.90
26583;DHT22;14230;45.382;10.998;2023-03-31T09:35:00;13.40;99.90
26583;DHT22;14230;45.382;10.998;2023-03-31T09:37:30;13.50;99.90
26583;DHT22;14230;45.382;10.998;2023-03-31T09:39:59;13.80;99.90
26583;DHT22;14230;45.382;10.998;2023-03-31T09:42:34;13.90;99.90
26583;DHT22;14230;45.382;10.998;2023-03-31T09:45:03;14.00;99.90
26583;DHT22;14230;45.382;10.998;2023-03-31T09:47:45;14.00;99.90
26583;DHT22;14230;45.382;10.998;2023-03-31T09:50:14;14.00;99.90
26583;DHT22;14230;45.382;10.998;2023-03-31T09:52:47;14.10;99.90
26583;DHT22;14230;45.382;10.998;2023-03-31T09:58:11;14.30;99.90
26583;DHT22;14230;45.382;10.998;2023-03-31T10:00:58;14.30;99.90
26583;DHT22;14230;45.382;10.998;2023-03-31T10:03:29;14.20;99.90
26583;DHT22;14230;45.382;10.998;2023-03-31T10:06:09;14.30;99.90
26583;DHT22;14230;45.382;10.998;2023-03-31T10:08:42;14.60;99.90
26583;DHT22;14230;45.382;10.998;2023-03-31T10:11:14;14.70;99.90
26583;DHT22;14230;45.382;10.998;2023-03-31T10:16:29;14.60;99.90
26583;DHT22;14230;45.382;10.998;2023-03-31T10:19:25;14.80;99.90
26583;DHT22;14230;45.382;10.998;2023-03-31T10:22:13;15.00;99.90
26583;DHT22;14230;45.382;10.998;2023-03-31T10:24:43;15.20;99.90
26583;DHT22;14230;45.382;10.998;2023-03-31T10:29:54;15.80;99.90
26583;DHT22;14230;45.382;10.998;2023-03-31T10:32:32;16.10;99.90
26583;DHT22;14230;45.382;10.998;2023-03-31T10:35:05;16.30;99.90
26583;DHT22;14230;45.382;10.998;2023-03-31T10:37:35;17.00;99.90
26583;DHT22;14230;45.382;10.998;2023-03-31T10:40:14;17.30;99.90
26583;DHT22;14230;45.382;10.998;2023-03-31T10:42:48;17.10;99.90
26583;DHT22;14230;45.382;10.998;2023-03-31T10:48:02;16.90;99.90
26583;DHT22;14230;45.382;10.998;2023-03-31T10:50:35;16.80;99.90
26583;DHT22;14230;45.382;10.998;2023-03-31T10:53:11;17.00;99.90
26583;DHT22;14230;45.382;10.998;2023-03-31T10:56:12;17.20;99.90
26583;DHT22;14230;45.382;10.998;2023-03-31T11:04:49;17.60;99.90
26583;DHT22;14230;45.382;10.998;2023-03-31T11:13:07;18.30;99.90
26583;DHT22;14230;45.382;10.998;2023-03-31T11:21:31;18.30;99.90
26583;DHT22;14230;45.382;10.998;2023-03-31T11:24:19;18.60;99.90
26583;DHT22;14230;45.382;10.998;2023-03-31T11:35:53;19.00;99.90
26583;DHT22;14230;45.382;10.998;2023-03-31T11:41:19;18.40;99.90
26583;DHT22;14230;45.382;10.998;2023-03-31T11:43:52;18.00;99.90
26583;DHT22;14230;45.382;10.998;2023-03-31T11:49:10;18.20;99.90
26583;DHT22;14230;45.382;10.998;2023-03-31T11:52:00;18.40;99.90
26583;DHT22;14230;45.382;10.998;2023-03-31T11:54:39;18.70;99.90
26583;DHT22;14230;45.382;10.998;2023-03-31T11:57:30;18.70;99.90
26583;DHT22;14230;45.382;10.998;2023-03-31T12:02:39;18.70;99.90
26583;DHT22;14230;45.382;10.998;2023-03-31T12:05:10;18.50;99.90
26583;DHT22;14230;45.382;10.998;2023-03-31T12:10:34;18.50;99.90
26583;DHT22;14230;45.382;10.998;2023-03-31T12:15:45;18.30;99.90
26583;DHT22;14230;45.382;10.998;2023-03-31T12:18:22;18.60;99.90
26583;DHT22;14230;45.382;10.998;2023-03-31T12:21:02;18.80;99.90
26583;DHT22;14230;45.382;10.998;2023-03-31T12:23:36;19.00;99.90
26583;DHT22;14230;45.382;10.998;2023-03-31T12:28:56;19.60;99.90
26583;DHT22;14230;45.382;10.998;2023-03-31T12:31:26;19.60;99.90
26583;DHT22;14230;45.382;10.998;2023-03-31T12:34:06;19.70;99.90
26583;DHT22;14230;45.382;10.998;2023-03-31T12:47:35;18.90;99.90
26583;DHT22;14230;45.382;10.998;2023-03-31T12:55:49;18.00;99.90
26583;DHT22;14230;45.382;10.998;2023-03-31T13:03:46;17.70;99.90
26583;DHT22;14230;45.382;10.998;2023-03-31T13:09:00;17.60;99.90
26583;DHT22;14230;45.382;10.998;2023-03-31T13:16:51;17.80;99.90
26583;DHT22;14230;45.382;10.998;2023-03-31T13:19:34;17.90;99.90
26583;DHT22;14230;45.382;10.998;2023-03-31T13:22:04;18.20;99.90
26583;DHT22;14230;45.382;10.998;2023-03-31T13:24:33;18.30;99.90
26583;DHT22;14230;45.382;10.998;2023-03-31T13:27:27;18.60;99.90
26583;DHT22;14230;45.382;10.998;2023-03-31T13:29:55;18.70;99.90
26583;DHT22;14230;45.382;10.998;2023-03-31T13:32:26;18.80;99.90
26583;DHT22;14230;45.382;10.998;2023-03-31T13:35:05;18.90;99.90
26583;DHT22;14230;45.382;10.998;2023-03-31T13:51:58;18.40;99.90
26583;DHT22;14230;45.382;10.998;2023-03-31T14:00:24;18.20;99.90
26583;DHT22;14230;45.382;10.998;2023-03-31T14:05:42;18.20;99.90
26583;DHT22;14230;45.382;10.998;2023-03-31T14:11:15;18.10;99.90
26583;DHT22;14230;45.382;10.998;2023-03-31T14:13:43;18.00;99.90
26583;DHT22;14230;45.382;10.998;2023-03-31T14:16:11;17.80;99.90
26583;DHT22;14230;45.382;10.998;2023-03-31T14:18:45;17.80;99.90
26583;DHT22;14230;45.382;10.998;2023-03-31T14:21:28;17.70;99.90
26583;DHT22;14230;45.382;10.998;2023-03-31T14:24:09;17.70;99.90
26583;DHT22;14230;45.382;10.998;2023-03-31T14:27:20;17.60;99.90
26583;DHT22;14230;45.382;10.998;2023-03-31T14:29:58;17.50;99.90
26583;DHT22;14230;45.382;10.998;2023-03-31T14:32:33;17.50;99.90
26583;DHT22;14230;45.382;10.998;2023-03-31T14:37:49;17.40;99.90
26583;DHT22;14230;45.382;10.998;2023-03-31T14:40:17;17.30;99.90
26583;DHT22;14230;45.382;10.998;2023-03-31T14:42:45;17.40;99.90
26583;DHT22;14230;45.382;10.998;2023-03-31T14:48:11;17.30;99.90
26583;DHT22;14230;45.382;10.998;2023-03-31T14:50:44;17.20;99.90
26583;DHT22;14230;45.382;10.998;2023-03-31T14:53:16;17.00;99.90
26583;DHT22;14230;45.382;10.998;2023-03-31T14:55:44;16.90;99.90
26583;DHT22;14230;45.382;10.998;2023-03-31T14:58:32;16.90;99.90
26583;DHT22;14230;45.382;10.998;2023-03-31T15:01:04;16.90;99.90
26583;DHT22;14230;45.382;10.998;2023-03-31T15:03:35;16.90;99.90
26583;DHT22;14230;45.382;10.998;2023-03-31T15:06:05;17.00;99.90
26583;DHT22;14230;45.382;10.998;2023-03-31T15:08:34;17.00;99.90
26583;DHT22;14230;45.382;10.998;2023-03-31T15:11:14;16.90;99.90
26583;DHT22;14230;45.382;10.998;2023-03-31T15:13:50;16.60;99.90
26583;DHT22;14230;45.382;10.998;2023-03-31T15:19:09;16.60;99.90
26583;DHT22;14230;45.382;10.998;2023-03-31T15:21:37;16.60;99.90
26583;DHT22;14230;45.382;10.998;2023-03-31T15:24:05;16.60;99.90
26583;DHT22;14230;45.382;10.998;2023-03-31T15:26:37;16.50;99.90
26583;DHT22;14230;45.382;10.998;2023-03-31T15:29:15;16.50;99.90
26583;DHT22;14230;45.382;10.998;2023-03-31T15:31:43;16.40;99.90
26583;DHT22;14230;45.382;10.998;2023-03-31T15:34:31;16.40;99.90
26583;DHT22;14230;45.382;10.998;2023-03-31T15:37:06;16.20;99.90
26583;DHT22;14230;45.382;10.998;2023-03-31T15:39:35;16.10;99.90
26583;DHT22;14230;45.382;10.998;2023-03-31T15:42:04;16.10;99.90
26583;DHT22;14230;45.382;10.998;2023-03-31T15:47:50;16.00;99.90
26583;DHT22;14230;45.382;10.998;2023-03-31T15:50:22;15.90;99.90
26583;DHT22;14230;45.382;10.998;2023-03-31T15:52:52;15.90;99.90
26583;DHT22;14230;45.382;10.998;2023-03-31T15:55:39;15.90;99.90
26583;DHT22;14230;45.382;10.998;2023-03-31T15:58:11;15.90;99.90
26583;DHT22;14230;45.382;10.998;2023-03-31T16:00:52;15.90;99.90
26583;DHT22;14230;45.382;10.998;2023-03-31T16:03:25;15.90;99.90
26583;DHT22;14230;45.382;10.998;2023-03-31T16:05:56;15.90;99.90
26583;DHT22;14230;45.382;10.998;2023-03-31T16:08:30;15.90;99.90
26583;DHT22;14230;45.382;10.998;2023-03-31T16:11:06;15.80;99.90
26583;DHT22;14230;45.382;10.998;2023-03-31T16:13:37;15.80;99.90
26583;DHT22;14230;45.382;10.998;2023-03-31T16:16:17;15.80;99.90
26583;DHT22;14230;45.382;10.998;2023-03-31T16:18:49;15.80;99.90
26583;DHT22;14230;45.382;10.998;2023-03-31T16:21:42;15.80;99.90
26583;DHT22;14230;45.382;10.998;2023-03-31T16:24:10;15.80;99.90
26583;DHT22;14230;45.382;10.998;2023-03-31T16:26:38;15.70;99.90
26583;DHT22;14230;45.382;10.998;2023-03-31T16:29:05;15.70;99.90
26583;DHT22;14230;45.382;10.998;2023-03-31T16:34:03;15.60;99.90
26583;DHT22;14230;45.382;10.998;2023-03-31T16:39:19;15.60;99.90
26583;DHT22;14230;45.382;10.998;2023-03-31T16:41:47;15.60;99.90
26583;DHT22;14230;45.382;10.998;2023-03-31T16:44:14;15.60;99.90
26583;DHT22;14230;45.382;10.998;2023-03-31T16:46:42;15.60;99.90
26583;DHT22;14230;45.382;10.998;2023-03-31T16:49:09;15.60;99.90
26583;DHT22;14230;45.382;10.998;2023-03-31T16:51:37;15.50;99.90
26583;DHT22;14230;45.382;10.998;2023-03-31T16:54:04;15.50;99.90
26583;DHT22;14230;45.382;10.998;2023-03-31T16:56:32;15.50;99.90
26583;DHT22;14230;45.382;10.998;2023-03-31T16:58:59;15.50;99.90
26583;DHT22;14230;45.382;10.998;2023-03-31T17:01:27;15.50;99.90
26583;DHT22;14230;45.382;10.998;2023-03-31T17:03:55;15.50;99.90
26583;DHT22;14230;45.382;10.998;2023-03-31T17:06:25;15.40;99.90
26583;DHT22;14230;45.382;10.998;2023-03-31T17:08:52;15.40;99.90
26583;DHT22;14230;45.382;10.998;2023-03-31T17:11:20;15.30;99.90
26583;DHT22;14230;45.382;10.998;2023-03-31T17:13:47;14.70;99.90
26583;DHT22;14230;45.382;10.998;2023-03-31T17:16:16;14.30;99.90
26583;DHT22;14230;45.382;10.998;2023-03-31T17:18:55;14.00;99.90
26583;DHT22;14230;45.382;10.998;2023-03-31T17:21:23;13.80;99.90
26583;DHT22;14230;45.382;10.998;2023-03-31T17:23:50;13.60;99.90
26583;DHT22;14230;45.382;10.998;2023-03-31T17:26:18;13.50;99.90
26583;DHT22;14230;45.382;10.998;2023-03-31T17:28:45;13.40;99.90
26583;DHT22;14230;45.382;10.998;2023-03-31T17:31:20;13.40;99.90
26583;DHT22;14230;45.382;10.998;2023-03-31T17:33:48;13.30;99.90
26583;DHT22;14230;45.382;10.998;2023-03-31T17:36:15;13.20;99.90
26583;DHT22;14230;45.382;10.998;2023-03-31T17:38:43;13.20;99.90
26583;DHT22;14230;45.382;10.998;2023-03-31T17:41:12;13.10;99.90
26583;DHT22;14230;45.382;10.998;2023-03-31T17:43:43;13.20;99.90
26583;DHT22;14230;45.382;10.998;2023-03-31T17:46:12;13.10;99.90
26583;DHT22;14230;45.382;10.998;2023-03-31T17:48:40;13.00;99.90
26583;DHT22;14230;45.382;10.998;2023-03-31T17:51:10;12.90;99.90
26583;DHT22;14230;45.382;10.998;2023-03-31T17:53:41;12.80;99.90
26583;DHT22;14230;45.382;10.998;2023-03-31T17:56:09;12.80;99.90
26583;DHT22;14230;45.382;10.998;2023-03-31T17:58:37;12.70;99.90
26583;DHT22;14230;45.382;10.998;2023-03-31T18:01:06;12.60;99.90
26583;DHT22;14230;45.382;10.998;2023-03-31T18:03:34;12.60;99.90
26583;DHT22;14230;45.382;10.998;2023-03-31T18:06:07;12.60;99.90
26583;DHT22;14230;45.382;10.998;2023-03-31T18:08:34;12.60;99.90
26583;DHT22;14230;45.382;10.998;2023-03-31T18:11:03;12.60;99.90
26583;DHT22;14230;45.382;10.998;2023-03-31T18:13:32;12.60;99.90
26583;DHT22;14230;45.382;10.998;2023-03-31T18:16:01;12.60;99.90
26583;DHT22;14230;45.382;10.998;2023-03-31T18:18:34;12.60;99.90
26583;DHT22;14230;45.382;10.998;2023-03-31T18:21:08;12.50;99.90
26583;DHT22;14230;45.382;10.998;2023-03-31T18:23:37;12.40;99.90
26583;DHT22;14230;45.382;10.998;2023-03-31T18:26:07;12.40;99.90
26583;DHT22;14230;45.382;10.998;2023-03-31T18:28:34;12.40;99.90
26583;DHT22;14230;45.382;10.998;2023-03-31T18:31:09;12.40;99.90
26583;DHT22;14230;45.382;10.998;2023-03-31T18:33:37;12.40;99.90
26583;DHT22;14230;45.382;10.998;2023-03-31T18:36:06;12.40;99.90
26583;DHT22;14230;45.382;10.998;2023-03-31T18:38:34;12.60;99.90
26583;DHT22;14230;45.382;10.998;2023-03-31T18:41:03;12.60;99.90
26583;DHT22;14230;45.382;10.998;2023-03-31T18:43:31;12.50;99.90
26583;DHT22;14230;45.382;10.998;2023-03-31T18:45:59;12.40;99.90
26583;DHT22;14230;45.382;10.998;2023-03-31T18:48:28;12.30;99.90
26583;DHT22;14230;45.382;10.998;2023-03-31T18:50:55;12.30;99.90
26583;DHT22;14230;45.382;10.998;2023-03-31T18:53:24;12.20;99.90
26583;DHT22;14230;45.382;10.998;2023-03-31T18:55:53;12.20;99.90
26583;DHT22;14230;45.382;10.998;2023-03-31T18:58:21;12.20;99.90
26583;DHT22;14230;45.382;10.998;2023-03-31T19:00:49;12.20;99.90